Impacts TAF Board
For situational awareness. Not to be used for flight planning purposes.
IDs:

KMDW - Chicago/Midway Intl, IL, US

Issued at 1130 UTC 30 Mar 2020
Updated at 1342 UTC 30 Mar 2020
Potential Impact None Slight Moderate High
Time1253Z 30/14Z 30/15Z 30/16Z 30/17Z 30/18Z 30/19Z 30/20Z 30/21Z 30/22Z 30/23Z 31/00Z 31/01Z 31/02Z>>
Type OBS PRVL PRVL PRVL PRVL PRVL PRVL PRVL PRVL PRVL PRVL PRVL PRVL PRVL
VIS 10 >6 >6 >6 >6 >6 >6 >6 >6 >6 >6 >6 >6 >6
CIG -- 35 35 35 35 35 35 35 35 35 35 35 35 35
Cover FEW BKN BKN BKN BKN BKN BKN BKN BKN BKN BKN BKN BKN BKN
FltCat VFR VFR VFR VFR VFR VFR VFR VFR VFR VFR VFR VFR VFR VFR
WX -- -- -- -- -- -- -- -- -- -- -- -- -- --
WDir 290 310 310 310 310 310 340 340 340 70 70 70 70 70
WSpd 13 14 14 14 14 14 12 12 12 9 9 9 9 9
WGst 19 21 21 21 21 21 18 18 18 -- -- -- -- --
Raw TAF
KMDW 301130Z 3012/3118 31014G21KT P6SM SCT025 BKN035
  FM301900 34012G18KT P6SM BKN035
  FM302200 07009KT P6SM SCT025 BKN035
  FM310600 01011KT P6SM SCT015 BKN025
  FM311200 02010KT P6SM SCT009 OVC015


Raw METAR
KMDW 301253Z 29013G19KT 10SM FEW030 FEW060 06/01 A3009 RMK AO2 SLP194 T00560006
KMDW 301153Z 31012KT 10SM SCT027 05/01 A3007 RMK AO2 SLP188 70001 T00500006 10072 20050 53029
KMDW 301053Z 30011G21KT 10SM BKN029 06/01 A3004 RMK AO2 SLP178 T00560006

METAR Board
Radar Display
Forecast Discussion
For situational awareness. Not to be used for flight planning purposes.